Time;durP1;ratioP1;P1;durP2;ratioP2;P2;SDS_P1;SDS_P2;PMS_P1;PMS_P2;Temp;Humidity;BMP_temperature;BMP_pressure;BME280_temperature;BME280_humidity;BME280_pressure;Samples;Min_cycle;Max_cycle;Signal;HPM_P1;HPM_P2
2024/05/04 00:03:52;;;;;;;16.30;8.57;;;17.60;99.90;;;;;;10878758;27;20286;-84
2024/05/04 00:09:13;;;;;;;13.85;9.05;;;17.60;99.90;;;;;;10879630;27;20230;-89
2024/05/04 00:14:35;;;;;;;15.82;9.38;;;17.60;99.90;;;;;;10853831;27;20493;-86
2024/05/04 00:19:57;;;;;;;13.57;9.00;;;17.40;99.90;;;;;;10855204;27;20316;-84
2024/05/04 00:25:18;;;;;;;14.27;8.20;;;17.40;99.90;;;;;;10834651;27;20478;-87
2024/05/04 00:30:40;;;;;;;14.35;9.35;;;17.40;99.90;;;;;;10817974;27;20504;-87
2024/05/04 00:36:02;;;;;;;14.30;9.15;;;17.40;99.90;;;;;;10851479;27;20234;-87
2024/05/04 00:41:25;;;;;;;15.27;9.70;;;17.20;99.90;;;;;;10804101;27;20342;-87
2024/05/04 00:46:46;;;;;;;16.05;9.57;;;17.20;99.90;;;;;;10832178;27;20244;-88
2024/05/04 00:52:09;;;;;;;12.75;7.68;;;17.10;99.90;;;;;;10852349;27;20272;-88
2024/05/04 00:57:32;;;;;;;18.13;10.43;;;;;;;;;;10810579;27;20347;-86
2024/05/04 01:02:53;;;;;;;15.98;10.57;;;;;;;;;;10817060;27;20282;-88
2024/05/04 01:08:15;;;;;;;11.43;7.82;;;16.80;99.90;;;;;;10854225;27;20395;-88
2024/05/04 01:13:43;;;;;;;13.23;6.80;;;16.80;99.90;;;;;;10853275;27;20288;-84
2024/05/04 01:19:12;;;;;;;13.38;6.57;;;16.70;99.90;;;;;;10849994;27;20253;-88
2024/05/04 01:24:33;;;;;;;17.27;9.30;;;16.60;99.90;;;;;;10828065;27;21430;-87
2024/05/04 01:29:55;;;;;;;12.93;9.02;;;16.50;99.90;;;;;;10852642;27;20245;-86
2024/05/04 01:35:18;;;;;;;14.77;8.98;;;16.40;99.90;;;;;;10859264;27;20319;-87
2024/05/04 01:40:42;;;;;;;10.77;7.30;;;16.30;99.90;;;;;;10833053;27;20300;-89
2024/05/04 01:46:04;;;;;;;11.68;7.57;;;16.40;99.90;;;;;;10869597;27;20245;-85
2024/05/04 01:51:27;;;;;;;13.90;8.80;;;16.30;99.90;;;;;;10882620;27;20531;-84
2024/05/04 01:56:49;;;;;;;19.15;10.85;;;16.30;99.90;;;;;;10853015;27;20234;-84
2024/05/04 02:02:11;;;;;;;18.45;10.20;;;16.10;99.90;;;;;;10858529;27;20303;-84
2024/05/04 02:07:33;;;;;;;16.38;9.18;;;16.00;1.00;;;;;;10835287;27;20513;-84
2024/05/04 02:12:54;;;;;;;15.23;9.23;;;16.00;1.00;;;;;;10808644;27;20313;-85
2024/05/04 02:18:16;;;;;;;18.02;10.55;;;16.00;1.00;;;;;;10831848;27;20288;-84
2024/05/04 02:23:37;;;;;;;20.63;11.05;;;15.90;1.00;;;;;;10857289;27;20242;-84
2024/05/04 02:28:59;;;;;;;18.77;10.85;;;15.90;1.00;;;;;;10859162;27;20217;-84
2024/05/04 02:34:22;;;;;;;21.02;11.90;;;15.90;1.00;;;;;;10830431;27;20276;-87
2024/05/04 02:39:43;;;;;;;16.73;12.15;;;15.90;1.00;;;;;;10859520;27;20220;-85
2024/05/04 02:45:05;;;;;;;18.33;11.20;;;15.90;1.00;;;;;;10838545;27;20473;-88
2024/05/04 02:50:27;;;;;;;15.60;10.68;;;15.90;1.00;;;;;;10858799;27;20272;-87
2024/05/04 02:55:48;;;;;;;15.68;10.48;;;16.00;1.00;;;;;;10880941;27;20372;-85
2024/05/04 03:01:11;;;;;;;14.48;10.27;;;15.90;1.00;;;;;;10807920;27;20279;-85
2024/05/04 03:06:32;;;;;;;14.45;10.02;;;15.90;99.90;;;;;;10694661;27;20363;-85
2024/05/04 03:11:54;;;;;;;15.18;10.95;;;15.80;99.90;;;;;;10743269;27;20316;-84
2024/05/04 03:17:16;;;;;;;15.18;10.18;;;15.70;1.00;;;;;;10796549;27;20265;-84
2024/05/04 03:22:42;;;;;;;17.65;10.25;;;15.50;1.00;;;;;;10726032;27;20289;-85
2024/05/04 03:28:04;;;;;;;16.50;11.15;;;15.60;1.00;;;;;;10721251;27;20222;-84
2024/05/04 03:33:25;;;;;;;19.00;12.40;;;15.80;1.00;;;;;;10698372;27;20242;-84
2024/05/04 03:38:48;;;;;;;17.83;11.35;;;15.70;1.00;;;;;;10721547;27;20266;-85
2024/05/04 03:44:09;;;;;;;13.32;10.02;;;15.70;1.00;;;;;;10742361;27;20240;-86
2024/05/04 03:49:31;;;;;;;16.30;10.65;;;15.70;1.00;;;;;;10720833;27;20269;-88
2024/05/04 03:54:53;;;;;;;17.33;10.93;;;15.70;1.00;;;;;;10759704;27;20418;-88
2024/05/04 04:00:14;;;;;;;19.50;11.10;;;15.60;1.00;;;;;;10747366;27;20473;-85
2024/05/04 04:05:36;;;;;;;17.08;11.00;;;15.60;1.00;;;;;;10775756;27;20268;-84
2024/05/04 04:10:57;;;;;;;12.80;10.30;;;15.80;1.00;;;;;;10786927;27;20228;-85
2024/05/04 04:16:19;;;;;;;15.60;10.77;;;15.80;1.00;;;;;;10743120;27;20289;-86
2024/05/04 04:21:40;;;;;;;16.83;10.60;;;16.00;1.00;;;;;;10807863;27;20257;-84
2024/05/04 04:27:02;;;;;;;18.67;10.73;;;16.00;1.00;;;;;;10764354;27;20237;-84
2024/05/04 04:32:23;;;;;;;12.68;9.38;;;16.00;1.00;;;;;;10808953;27;20444;-83
2024/05/04 04:37:45;;;;;;;16.95;10.48;;;16.10;1.00;;;;;;10810674;27;20227;-84
2024/05/04 04:43:07;;;;;;;13.70;8.80;;;16.20;1.00;;;;;;10808296;27;20284;-85
2024/05/04 04:48:30;;;;;;;14.60;9.45;;;16.30;1.00;;;;;;10809538;27;20261;-85
2024/05/04 04:53:51;;;;;;;16.20;9.68;;;16.50;1.00;;;;;;10762159;27;20537;-84
2024/05/04 04:59:12;;;;;;;15.70;10.63;;;16.60;1.00;;;;;;10786105;27;20331;-85
2024/05/04 05:04:34;;;;;;;14.80;9.23;;;16.70;1.00;;;;;;10851460;27;20530;-85
2024/05/04 05:09:56;;;;;;;16.58;10.60;;;16.80;1.00;;;;;;10786030;27;20243;-85
2024/05/04 05:15:17;;;;;;;18.30;10.38;;;16.90;1.00;;;;;;10861516;27;20267;-84
2024/05/04 05:20:39;;;;;;;20.05;9.80;;;17.00;1.00;;;;;;10849791;27;20241;-86
2024/05/04 05:26:00;;;;;;;14.40;8.95;;;17.00;1.00;;;;;;10783374;27;20409;-85
2024/05/04 05:31:22;;;;;;;13.57;8.55;;;17.10;1.00;;;;;;10808469;27;20310;-87
2024/05/04 05:36:44;;;;;;;19.30;9.48;;;17.20;1.00;;;;;;10761599;27;20318;-85
2024/05/04 05:42:05;;;;;;;13.75;8.73;;;17.30;1.00;;;;;;10818695;27;20316;-85
2024/05/04 05:47:26;;;;;;;13.20;7.30;;;17.50;1.00;;;;;;10807421;27;20238;-85
2024/05/04 05:52:48;;;;;;;13.35;8.60;;;17.80;1.00;;;;;;10804349;27;20285;-85
2024/05/04 05:58:09;;;;;;;16.98;8.27;;;18.10;1.00;;;;;;10848330;27;20234;-85
2024/05/04 06:03:31;;;;;;;17.50;8.88;;;18.40;1.00;;;;;;10851287;27;20261;-85
2024/05/04 06:08:52;;;;;;;12.32;7.95;;;18.70;1.00;;;;;;10876194;27;20282;-85
2024/05/04 06:14:14;;;;;;;17.65;7.53;;;19.00;1.00;;;;;;10846869;27;20261;-85
2024/05/04 06:19:36;;;;;;;9.43;6.60;;;19.50;1.00;;;;;;10809140;27;20257;-87
2024/05/04 06:24:58;;;;;;;8.00;6.15;;;20.10;1.00;;;;;;10834612;27;20497;-85
2024/05/04 06:30:20;;;;;;;12.80;6.53;;;20.70;1.00;;;;;;10859231;27;20306;-85
2024/05/04 06:35:42;;;;;;;13.48;6.63;;;21.70;1.00;;;;;;10853291;27;20237;-85
2024/05/04 06:41:04;;;;;;;11.05;6.97;;;22.80;1.00;;;;;;10858530;27;20242;-85
2024/05/04 06:46:26;;;;;;;16.42;6.82;;;23.70;1.00;;;;;;10857357;27;20288;-85
2024/05/04 06:51:47;;;;;;;12.35;6.30;;;24.60;1.00;;;;;;10857673;27;20260;-85
2024/05/04 06:57:10;;;;;;;18.35;6.55;;;;;;;;;;10857654;27;20404;-86
2024/05/04 07:02:31;;;;;;;15.18;7.00;;;25.80;1.00;;;;;;10852067;27;20257;-90
2024/05/04 07:07:53;;;;;;;14.05;6.57;;;26.30;1.00;;;;;;10858679;27;20294;-89
2024/05/04 07:13:16;;;;;;;16.65;9.05;;;26.70;1.00;;;;;;10807181;27;20274;-90
2024/05/04 07:18:38;;;;;;;19.13;8.55;;;27.20;1.00;;;;;;10853767;27;20241;-89
2024/05/04 07:23:59;;;;;;;21.55;8.65;;;28.00;1.00;;;;;;10855973;27;20246;-89
2024/05/04 07:29:21;;;;;;;10.00;4.30;;;28.30;99.90;;;;;;10856651;27;20218;-85
2024/05/04 07:34:42;;;;;;;8.05;3.83;;;;;;;;;;10805927;27;20245;-86
2024/05/04 07:40:05;;;;;;;6.80;3.13;;;29.50;99.90;;;;;;10857554;27;20218;-88
2024/05/04 07:45:27;;;;;;;9.77;4.38;;;;;;;;;;10855462;27;20245;-89
2024/05/04 07:50:49;;;;;;;15.25;3.80;;;;;;;;;;10834581;27;20256;-84
2024/05/04 07:56:11;;;;;;;7.18;3.40;;;30.30;99.90;;;;;;10829274;27;20409;-88
2024/05/04 08:01:32;;;;;;;8.35;2.67;;;30.60;99.90;;;;;;10803569;27;20308;-84
2024/05/04 08:06:54;;;;;;;4.65;2.72;;;31.00;99.90;;;;;;10875099;27;20281;-90
2024/05/04 08:12:16;;;;;;;30.10;3.60;;;31.50;1.00;;;;;;10856301;27;20261;-85
2024/05/04 08:17:37;;;;;;;32.40;4.20;;;31.70;99.90;;;;;;10811815;27;20219;-84
2024/05/04 08:22:59;;;;;;;4.55;2.08;;;31.80;99.90;;;;;;10869398;27;20310;-85
2024/05/04 08:28:20;;;;;;;7.10;2.58;;;31.90;1.00;;;;;;10855382;27;20385;-85
2024/05/04 08:33:41;;;;;;;11.57;2.90;;;32.30;99.90;;;;;;10853866;27;20257;-86
2024/05/04 08:39:03;;;;;;;10.77;2.95;;;32.10;99.90;;;;;;10854592;27;20229;-84
2024/05/04 08:44:27;;;;;;;3.38;1.92;;;32.10;99.90;;;;;;10847988;27;20308;-84
2024/05/04 08:49:50;;;;;;;7.05;2.00;;;32.40;99.90;;;;;;10850603;27;20242;-85
2024/05/04 08:55:12;;;;;;;4.03;2.53;;;32.50;1.00;;;;;;10851400;27;20261;-85
2024/05/04 09:00:34;;;;;;;7.30;2.50;;;32.70;1.00;;;;;;10854218;27;20480;-85
2024/05/04 09:05:56;;;;;;;13.90;2.40;;;33.10;99.90;;;;;;10874967;27;20364;-85
2024/05/04 09:11:19;;;;;;;5.68;2.20;;;33.20;99.90;;;;;;10854678;27;20257;-85
2024/05/04 09:16:41;;;;;;;7.80;2.42;;;33.60;99.90;;;;;;10877279;27;20469;-85
2024/05/04 09:22:03;;;;;;;9.65;2.40;;;;;;;;;;10876982;27;20237;-84
2024/05/04 09:27:26;;;;;;;4.10;2.05;;;33.90;99.90;;;;;;10876075;27;20250;-85
2024/05/04 09:32:52;;;;;;;19.65;3.88;;;34.20;99.90;;;;;;10877082;27;20309;-87
2024/05/04 09:38:23;;;;;;;2.78;1.55;;;34.50;99.90;;;;;;10807994;27;20270;-86
2024/05/04 09:43:46;;;;;;;4.50;1.88;;;34.50;99.90;;;;;;10772344;27;20246;-88
2024/05/04 09:49:08;;;;;;;8.27;2.10;;;33.80;99.90;;;;;;10848164;27;20270;-86
2024/05/04 09:54:30;;;;;;;6.63;1.83;;;33.90;99.90;;;;;;10830773;27;20345;-86
2024/05/04 09:59:58;;;;;;;11.82;1.70;;;34.30;99.90;;;;;;10859773;27;20241;-86
2024/05/04 10:05:22;;;;;;;4.13;1.83;;;34.70;99.90;;;;;;10796977;27;20351;-86
2024/05/04 10:10:46;;;;;;;7.82;1.80;;;34.60;99.90;;;;;;10814591;27;20262;-84
2024/05/04 10:16:07;;;;;;;14.70;2.10;;;34.30;99.90;;;;;;10839351;27;20317;-86
2024/05/04 10:21:29;;;;;;;4.28;1.88;;;34.20;99.90;;;;;;10870314;27;20281;-86
2024/05/04 10:26:52;;;;;;;41.25;4.47;;;34.40;99.90;;;;;;10883176;27;20222;-86
2024/05/04 10:32:15;;;;;;;4.53;1.45;;;34.70;99.90;;;;;;10852884;27;20245;-86
2024/05/04 10:37:37;;;;;;;5.45;1.70;;;35.00;99.90;;;;;;10859153;27;20273;-86
2024/05/04 10:43:00;;;;;;;11.00;2.50;;;35.10;99.90;;;;;;10853143;27;20305;-85
2024/05/04 10:48:21;;;;;;;8.30;1.40;;;35.10;99.90;;;;;;10858153;27;20222;-86
2024/05/04 10:53:45;;;;;;;41.53;4.05;;;35.10;99.90;;;;;;10856881;27;20242;-87
2024/05/04 10:59:07;;;;;;;4.78;2.08;;;34.80;99.90;;;;;;10881425;27;20253;-88
2024/05/04 11:04:28;;;;;;;2.65;1.55;;;34.80;99.90;;;;;;10879606;27;20249;-86
2024/05/04 11:09:51;;;;;;;3.78;2.03;;;33.70;99.90;;;;;;10858330;27;20329;-86
2024/05/04 11:15:42;;;;;;;11.07;2.30;;;32.70;99.90;;;;;;10811113;27;20235;-87
2024/05/04 11:21:03;;;;;;;11.40;3.58;;;33.00;99.90;;;;;;10822566;27;20320;-86
2024/05/04 11:26:25;;;;;;;13.15;3.00;;;33.50;99.90;;;;;;10854144;27;20305;-86
2024/05/04 11:31:46;;;;;;;6.20;3.00;;;34.10;99.90;;;;;;10857220;27;20257;-85
2024/05/04 11:37:08;;;;;;;5.90;2.42;;;34.30;99.90;;;;;;10855213;27;20478;-85
2024/05/04 11:42:29;;;;;;;4.63;2.10;;;34.20;99.90;;;;;;10789224;27;20255;-86
2024/05/04 11:47:51;;;;;;;2.00;1.70;;;34.10;99.90;;;;;;10842588;27;20513;-87
2024/05/04 11:53:13;;;;;;;3.97;2.00;;;34.10;99.90;;;;;;10833870;27;20225;-86
2024/05/04 11:58:35;;;;;;;4.82;1.92;;;33.80;99.90;;;;;;10877875;27;20358;-85
2024/05/04 12:03:57;;;;;;;2.92;1.40;;;32.90;99.90;;;;;;10840433;27;20306;-86
2024/05/04 12:09:18;;;;;;;6.78;1.83;;;32.60;99.90;;;;;;10824435;27;20268;-85
2024/05/04 12:14:40;;;;;;;2.63;2.00;;;32.70;99.90;;;;;;10854845;27;20234;-86
2024/05/04 12:20:02;;;;;;;4.90;2.00;;;33.00;99.90;;;;;;10875247;27;20238;-87
2024/05/04 12:25:23;;;;;;;2.90;1.75;;;33.20;99.90;;;;;;10788056;27;20361;-85
2024/05/04 12:30:46;;;;;;;4.50;1.88;;;33.20;99.90;;;;;;10856625;27;20365;-85
2024/05/04 12:36:08;;;;;;;8.55;1.92;;;33.30;99.90;;;;;;10851269;27;20273;-86
2024/05/04 12:41:34;;;;;;;8.00;2.30;;;33.30;99.90;;;;;;10852617;27;20245;-86
2024/05/04 12:46:56;;;;;;;1.90;1.30;;;33.10;99.90;;;;;;10854804;27;20238;-86
2024/05/04 12:52:18;;;;;;;5.25;2.03;;;32.90;99.90;;;;;;10852493;27;20230;-86
2024/05/04 12:57:42;;;;;;;4.78;2.15;;;32.70;99.90;;;;;;10763486;27;20318;-85
2024/05/04 13:03:03;;;;;;;4.90;2.00;;;32.60;99.90;;;;;;10814249;27;20253;-85
2024/05/04 13:08:25;;;;;;;3.95;1.70;;;32.70;99.90;;;;;;10877492;27;20241;-86
2024/05/04 13:13:47;;;;;;;3.92;1.77;;;32.40;99.90;;;;;;10804004;27;20248;-85
2024/05/04 13:19:09;;;;;;;2.90;1.98;;;32.00;99.90;;;;;;10853273;27;20428;-85
2024/05/04 13:24:30;;;;;;;12.20;2.00;;;31.80;99.90;;;;;;10852119;27;20230;-85
2024/05/04 13:29:52;;;;;;;4.55;2.00;;;31.80;99.90;;;;;;10835842;27;20242;-85
2024/05/04 13:35:13;;;;;;;3.97;1.90;;;31.40;99.90;;;;;;10837535;27;20272;-85
2024/05/04 13:40:35;;;;;;;5.95;2.33;;;31.10;99.90;;;;;;10859012;27;20408;-85
2024/05/04 13:45:57;;;;;;;5.82;2.72;;;30.70;99.90;;;;;;10860199;27;20253;-85
2024/05/04 13:51:18;;;;;;;5.18;1.95;;;30.50;99.90;;;;;;10858090;27;20284;-85
2024/05/04 13:56:40;;;;;;;6.78;2.30;;;30.70;99.90;;;;;;10832087;27;20372;-86
2024/05/04 14:02:02;;;;;;;5.30;2.35;;;30.70;99.90;;;;;;10851269;27;20300;-85
2024/05/04 14:07:24;;;;;;;6.40;2.20;;;30.50;99.90;;;;;;10859397;27;20241;-85
2024/05/04 14:12:48;;;;;;;6.18;2.78;;;30.10;99.90;;;;;;10756494;27;20326;-86
2024/05/04 14:18:09;;;;;;;7.60;2.65;;;29.80;99.90;;;;;;10819201;27;20241;-85
2024/05/04 14:23:31;;;;;;;8.32;2.58;;;29.50;99.90;;;;;;10836141;27;20252;-85
2024/05/04 14:28:52;;;;;;;7.25;2.55;;;29.30;99.90;;;;;;10881889;27;20242;-85
2024/05/04 14:34:14;;;;;;;5.45;2.40;;;29.20;99.90;;;;;;10831343;27;20229;-85
2024/05/04 14:39:36;;;;;;;10.80;2.28;;;;;;;;;;10880705;27;20250;-85
2024/05/04 14:44:57;;;;;;;7.75;4.18;;;;;;;;;;10858923;27;20260;-85
2024/05/04 14:50:19;;;;;;;5.45;2.70;;;28.20;99.90;;;;;;10832018;27;20261;-86
2024/05/04 14:55:40;;;;;;;8.90;3.10;;;28.10;99.90;;;;;;10853987;27;20265;-86
2024/05/04 15:01:02;;;;;;;9.35;3.28;;;27.70;99.90;;;;;;10880882;27;20385;-86
2024/05/04 15:06:24;;;;;;;6.53;3.78;;;27.50;99.90;;;;;;10853539;27;20520;-85
2024/05/04 15:11:45;;;;;;;10.57;3.63;;;27.40;99.90;;;;;;10806485;27;20237;-86
2024/05/04 15:17:08;;;;;;;21.15;11.88;;;27.40;99.90;;;;;;10832377;27;20238;-85
2024/05/04 15:22:30;;;;;;;14.52;8.35;;;27.00;99.90;;;;;;10829999;27;20249;-85
2024/05/04 15:27:51;;;;;;;12.10;7.53;;;26.60;99.90;;;;;;10855956;27;20268;-84
2024/05/04 15:33:13;;;;;;;10.80;5.90;;;26.30;99.90;;;;;;10834582;27;20222;-84
2024/05/04 15:38:34;;;;;;;10.40;5.85;;;25.80;99.90;;;;;;10879636;27;20238;-85
2024/05/04 15:43:56;;;;;;;6.95;3.97;;;25.80;99.90;;;;;;10855152;27;20261;-84
2024/05/04 15:49:18;;;;;;;6.53;3.65;;;25.80;1.00;;;;;;10850605;27;20238;-84
2024/05/04 15:54:43;;;;;;;6.53;3.53;;;25.60;1.00;;;;;;10832391;27;20325;-83
2024/05/04 16:00:06;;;;;;;6.40;3.10;;;25.60;1.00;;;;;;10880895;27;20264;-83
2024/05/04 16:05:28;;;;;;;5.45;2.47;;;;;;;;;;10854572;27;20250;-84
2024/05/04 16:10:49;;;;;;;5.78;2.33;;;25.20;99.90;;;;;;10880338;27;20327;-83
2024/05/04 16:16:12;;;;;;;4.97;2.60;;;24.90;99.90;;;;;;10832075;27;20278;-83
2024/05/04 16:21:34;;;;;;;7.63;2.88;;;24.80;1.00;;;;;;10855913;27;20277;-83
2024/05/04 16:26:55;;;;;;;8.23;2.72;;;24.50;99.90;;;;;;10826256;27;20241;-83
2024/05/04 16:32:16;;;;;;;5.07;2.80;;;24.30;99.90;;;;;;10805869;27;20230;-83
2024/05/04 16:37:38;;;;;;;8.57;2.90;;;24.30;1.00;;;;;;10854042;27;20253;-83
2024/05/04 16:43:00;;;;;;;6.70;3.38;;;;;;;;;;10855489;27;20307;-84
2024/05/04 16:48:22;;;;;;;5.60;3.88;;;;;;;;;;10855028;27;20241;-83
2024/05/04 16:53:44;;;;;;;8.60;3.30;;;23.90;99.90;;;;;;10853171;27;20245;-82
2024/05/04 16:59:06;;;;;;;8.15;2.75;;;23.80;91.20;;;;;;10781289;27;20238;-84
2024/05/04 17:04:28;;;;;;;9.68;3.58;;;23.80;99.90;;;;;;10867516;27;20249;-85
2024/05/04 17:09:50;;;;;;;8.27;3.50;;;23.60;1.00;;;;;;10825271;27;20512;-85
2024/05/04 17:15:12;;;;;;;6.22;3.05;;;;;;;;;;10854035;27;20241;-85
2024/05/04 17:20:34;;;;;;;10.18;3.63;;;;;;;;;;10853177;27;20293;-85
2024/05/04 17:25:56;;;;;;;9.70;3.22;;;22.70;1.00;;;;;;10825583;27;20246;-84
2024/05/04 17:31:18;;;;;;;9.00;2.92;;;22.40;99.90;;;;;;10854172;27;20225;-85
2024/05/04 17:36:39;;;;;;;5.70;2.88;;;22.30;99.90;;;;;;10853568;27;20319;-84
2024/05/04 17:42:01;;;;;;;7.60;2.88;;;22.30;99.90;;;;;;10830422;27;20256;-85
2024/05/04 17:47:22;;;;;;;4.35;2.30;;;22.20;99.90;;;;;;10874466;27;20246;-85
2024/05/04 17:52:43;;;;;;;6.45;3.25;;;22.00;99.90;;;;;;10852614;27;20275;-84
2024/05/04 17:58:05;;;;;;;9.10;4.47;;;21.90;99.90;;;;;;10876884;27;20234;-84
2024/05/04 18:03:27;;;;;;;8.88;5.13;;;21.90;99.90;;;;;;10852214;27;20277;-85
2024/05/04 18:08:48;;;;;;;8.88;4.63;;;21.70;99.90;;;;;;10784277;27;20336;-85
2024/05/04 18:14:13;;;;;;;7.55;4.70;;;21.70;99.90;;;;;;10858535;27;20248;-86
2024/05/04 18:24:57;;;;;;;6.78;3.70;;;21.40;99.90;;;;;;10856152;27;20504;-86
2024/05/04 18:30:18;;;;;;;10.50;4.70;;;21.30;99.90;;;;;;10858792;27;20265;-86
2024/05/04 18:35:40;;;;;;;10.80;5.10;;;21.20;99.90;;;;;;10857934;27;20273;-85
2024/05/04 19:03:56;;;;;;;9.82;4.78;;;20.70;1.00;;;;;;10838089;27;20547;-85
2024/05/04 19:09:20;;;;;;;7.20;4.82;;;20.40;1.00;;;;;;10840647;27;20276;-86
2024/05/04 19:14:41;;;;;;;11.80;4.70;;;20.40;1.00;;;;;;10836135;27;20277;-87
2024/05/04 19:20:05;;;;;;;11.20;4.32;;;20.20;1.00;;;;;;10857277;27;20293;-86
2024/05/04 19:25:26;;;;;;;9.90;5.30;;;20.10;1.00;;;;;;10882386;27;20266;-85
2024/05/04 19:30:48;;;;;;;10.13;4.75;;;20.10;1.00;;;;;;10856266;27;20250;-85
2024/05/04 19:36:10;;;;;;;7.05;4.43;;;19.90;1.00;;;;;;10835270;27;20272;-86
2024/05/04 19:41:39;;;;;;;7.60;4.60;;;19.80;1.00;;;;;;10796944;27;20321;-85
2024/05/04 19:47:01;;;;;;;12.18;5.97;;;19.70;1.00;;;;;;10815373;27;20250;-84
2024/05/04 19:52:22;;;;;;;15.13;7.25;;;19.60;1.00;;;;;;10834195;27;20493;-85
2024/05/04 19:57:44;;;;;;;11.65;5.60;;;;;;;;;;10879616;27;20238;-85
2024/05/04 20:03:14;;;;;;;12.18;6.28;;;19.40;46.30;;;;;;10829367;27;20474;-85
2024/05/04 20:08:55;;;;;;;8.93;4.75;;;19.30;1.00;;;;;;10859143;27;20481;-85
2024/05/04 20:14:18;;;;;;;10.25;5.53;;;19.30;1.00;;;;;;10856811;27;20314;-85
2024/05/04 20:20:23;;;;;;;7.45;5.00;;;19.20;1.00;;;;;;10854022;27;20478;-85
2024/05/04 20:25:45;;;;;;;8.13;3.88;;;;;;;;;;10880268;27;20215;-85
2024/05/04 20:31:06;;;;;;;8.98;4.70;;;18.90;1.00;;;;;;10854359;27;20241;-86
2024/05/04 20:36:30;;;;;;;10.27;4.07;;;18.80;1.00;;;;;;10805237;27;20304;-85
2024/05/04 20:41:52;;;;;;;6.18;4.13;;;18.70;1.00;;;;;;10854821;27;20421;-86
2024/05/04 20:47:13;;;;;;;9.20;3.90;;;18.70;1.00;;;;;;10851193;27;20230;-85
2024/05/04 20:52:35;;;;;;;8.35;4.38;;;18.70;1.00;;;;;;10871041;27;20321;-84
2024/05/04 20:57:57;;;;;;;10.75;4.25;;;18.50;1.00;;;;;;10843142;27;20304;-85
2024/05/04 21:03:18;;;;;;;16.45;8.65;;;18.50;1.00;;;;;;10828957;27;20241;-85
2024/05/04 21:08:41;;;;;;;18.05;9.80;;;;;;;;;;10852848;27;20264;-84
2024/05/04 21:14:03;;;;;;;20.00;11.05;;;;;;;;;;10852574;27;20234;-84
2024/05/04 21:19:27;;;;;;;20.23;10.05;;;;;;;;;;10830510;27;20272;-85
2024/05/04 21:24:51;;;;;;;12.60;7.90;;;18.00;92.50;;;;;;10826825;27;20497;-85
2024/05/04 21:30:16;;;;;;;11.65;7.97;;;;;;;;;;10829662;27;20261;-86
2024/05/04 21:35:39;;;;;;;11.98;7.13;;;;;;;;;;10854651;27;20249;-86
2024/05/04 21:41:02;;;;;;;12.75;8.48;;;;;;;;;;10825107;27;20245;-86
2024/05/04 21:46:26;;;;;;;14.40;7.70;;;17.90;1.00;;;;;;10827002;27;20340;-86
2024/05/04 21:51:47;;;;;;;14.45;6.90;;;17.90;99.90;;;;;;10861015;27;20226;-86
2024/05/04 21:57:09;;;;;;;8.82;5.50;;;17.90;99.90;;;;;;10878361;27;20356;-86
2024/05/04 22:02:30;;;;;;;11.07;4.82;;;18.40;1.00;;;;;;10855309;27;20345;-85
2024/05/04 22:07:52;;;;;;;6.53;4.50;;;17.50;1.00;;;;;;10849147;27;20281;-86
2024/05/04 22:13:14;;;;;;;8.27;4.22;;;17.40;1.00;;;;;;10817522;27;20235;-86
2024/05/04 22:18:36;;;;;;;9.70;5.22;;;17.30;25.70;;;;;;10845790;27;20315;-85
2024/05/04 22:23:57;;;;;;;6.80;4.70;;;17.30;19.10;;;;;;10858977;27;20269;-85
2024/05/04 22:29:18;;;;;;;9.80;5.53;;;17.30;29.20;;;;;;10811968;27;20350;-84
2024/05/04 22:34:40;;;;;;;10.40;5.70;;;17.20;1.00;;;;;;10813893;27;20266;-84
2024/05/04 22:40:02;;;;;;;10.50;5.90;;;17.10;33.60;;;;;;10850371;27;20257;-84
2024/05/04 22:45:24;;;;;;;10.07;6.38;;;17.10;93.10;;;;;;10790750;27;20219;-84
2024/05/04 22:51:17;;;;;;;9.07;6.22;;;17.00;71.10;;;;;;10829205;27;20284;-84
2024/05/04 22:56:38;;;;;;;8.85;5.70;;;17.00;99.90;;;;;;10843724;27;20241;-84
2024/05/04 23:02:00;;;;;;;9.73;5.38;;;16.90;99.90;;;;;;10835165;27;20448;-84
2024/05/04 23:08:02;;;;;;;10.75;5.72;;;16.80;99.90;;;;;;10856372;27;20245;-85
2024/05/04 23:13:24;;;;;;;7.20;5.63;;;16.60;99.90;;;;;;10835407;27;20325;-85
2024/05/04 23:18:52;;;;;;;11.43;6.13;;;;;;;;;;10857020;27;20244;-86
2024/05/04 23:24:14;;;;;;;10.65;5.95;;;16.30;99.90;;;;;;10857094;27;20340;-84
2024/05/04 23:29:35;;;;;;;10.63;6.40;;;16.20;99.90;;;;;;10809748;27;20253;-84
2024/05/04 23:34:57;;;;;;;9.02;6.07;;;16.10;99.90;;;;;;10788439;27;20471;-84
2024/05/04 23:40:19;;;;;;;7.88;6.30;;;16.20;1.00;;;;;;10835939;27;20573;-84
2024/05/04 23:45:41;;;;;;;9.63;6.18;;;16.30;1.00;;;;;;10852492;27;20453;-84
2024/05/04 23:51:05;;;;;;;8.48;5.97;;;16.30;1.00;;;;;;10848506;27;20284;-83
2024/05/04 23:56:27;;;;;;;9.70;5.55;;;16.40;1.00;;;;;;10840691;27;20240;-84
